createdAt,value
2019-01-11T00:00:52.236Z,50.57
2019-01-11T00:00:54.472Z,63.30
2019-01-11T00:01:54.467Z,59.90
2019-01-11T00:02:54.489Z,59.60
2019-01-11T00:03:20.022Z,42.37
2019-01-11T00:03:54.492Z,54.50
2019-01-11T00:04:54.528Z,59.30
2019-01-11T00:05:48.064Z,48.80
2019-01-11T00:05:54.528Z,55.50
2019-01-11T00:06:54.525Z,56.70
2019-01-11T00:07:54.562Z,57.70
2019-01-11T00:08:16.757Z,46.10
2019-01-11T00:08:54.594Z,63.10
2019-01-11T00:09:54.564Z,55.70
2019-01-11T00:10:45.088Z,45.33
2019-01-11T00:10:54.575Z,61.80
2019-01-11T00:11:54.663Z,60.10
2019-01-11T00:12:54.668Z,61.10
2019-01-11T00:13:14.047Z,49.03
2019-01-11T00:13:54.610Z,65.40
2019-01-11T00:14:54.631Z,59.70
2019-01-11T00:15:42.391Z,43.97
2019-01-11T00:15:54.737Z,61.60
2019-01-11T00:16:54.664Z,65.70
2019-01-11T00:17:54.691Z,62.00
2019-01-11T00:18:10.566Z,44.10
2019-01-11T00:18:54.694Z,61.30
2019-01-11T00:19:54.710Z,61.90
2019-01-11T00:20:38.328Z,50.50
2019-01-11T00:20:54.762Z,60.10
2019-01-11T00:21:54.745Z,62.90
2019-01-11T00:22:54.739Z,62.40
2019-01-11T00:23:06.086Z,48.83
2019-01-11T00:23:54.759Z,60.30
2019-01-11T00:24:54.767Z,66.50
2019-01-11T00:25:33.710Z,48.40
2019-01-11T00:25:54.803Z,63.00
2019-01-11T00:26:54.793Z,62.90
2019-01-11T00:27:54.813Z,67.40
2019-01-11T00:28:01.616Z,49.33
2019-01-11T00:28:54.877Z,66.80
2019-01-11T00:29:54.845Z,65.00
2019-01-11T00:30:30.171Z,47.73
2019-01-11T00:30:54.866Z,63.50
2019-01-11T00:31:54.874Z,56.30
2019-01-11T00:32:54.880Z,63.70
2019-01-11T00:32:58.183Z,55.03
2019-01-11T00:33:54.890Z,63.00
2019-01-11T00:34:54.904Z,72.50
2019-01-11T00:35:25.876Z,45.60
2019-01-11T00:35:54.955Z,69.30
2019-01-11T00:36:54.936Z,63.00
2019-01-11T00:37:53.687Z,51.50
2019-01-11T00:37:54.943Z,72.10
2019-01-11T00:38:54.964Z,65.60
2019-01-11T00:39:54.994Z,59.00
2019-01-11T00:40:21.763Z,50.63
2019-01-11T00:40:54.990Z,66.60
2019-01-11T00:41:55.051Z,69.50
2019-01-11T00:42:49.786Z,49.27
2019-01-11T00:42:55.041Z,71.00
2019-01-11T00:43:55.029Z,61.20
2019-01-11T00:44:55.080Z,65.90
2019-01-11T00:45:17.921Z,51.00
2019-01-11T00:45:55.104Z,72.70
2019-01-11T00:46:55.069Z,68.10
2019-01-11T00:47:45.968Z,51.57
2019-01-11T00:47:55.099Z,69.80
2019-01-11T00:48:55.139Z,67.20
2019-01-11T00:49:55.143Z,75.50
2019-01-11T00:50:13.737Z,54.73
2019-01-11T00:50:55.154Z,68.40
2019-01-11T00:51:55.197Z,73.30
2019-01-11T00:52:42.012Z,51.47
2019-01-11T00:52:55.174Z,66.20
2019-01-11T00:53:55.200Z,57.90
2019-01-11T00:54:55.201Z,57.00
2019-01-11T00:55:10.021Z,50.27
2019-01-11T00:55:55.193Z,56.70
2019-01-11T00:56:55.230Z,54.70
2019-01-11T00:57:38.147Z,48.93
2019-01-11T00:57:55.250Z,57.70
2019-01-11T00:58:55.246Z,61.90
2019-01-11T00:59:55.265Z,55.70
2019-01-11T01:00:08.267Z,52.53
2019-01-11T01:00:55.291Z,58.20
2019-01-11T01:01:55.303Z,63.10
2019-01-11T01:02:36.451Z,47.27
2019-01-11T01:02:55.325Z,61.60
2019-01-11T01:03:55.337Z,57.70
2019-01-11T01:04:55.338Z,60.80
2019-01-11T01:05:04.989Z,47.37
2019-01-11T01:05:55.343Z,61.80
2019-01-11T01:06:55.348Z,59.30
2019-01-11T01:07:32.814Z,48.23
2019-01-11T01:07:55.368Z,62.90
2019-01-11T01:08:55.384Z,57.80
2019-01-11T01:09:55.394Z,60.20
2019-01-11T01:10:01.220Z,49.90
2019-01-11T01:10:55.426Z,65.80
2019-01-11T01:11:55.496Z,60.20
2019-01-11T01:12:29.037Z,51.23
2019-01-11T01:12:55.431Z,57.20
2019-01-11T01:13:55.445Z,62.90
2019-01-11T01:14:55.470Z,59.10
2019-01-11T01:14:57.402Z,52.07
2019-01-11T01:15:55.505Z,60.20
2019-01-11T01:16:55.521Z,64.20
2019-01-11T01:17:25.410Z,49.40
2019-01-11T01:17:55.554Z,57.00
2019-01-11T01:18:55.556Z,55.30
2019-01-11T01:19:53.250Z,44.83
2019-01-11T01:19:55.561Z,56.50
2019-01-11T01:20:55.552Z,56.10
2019-01-11T01:21:55.572Z,60.10
2019-01-11T01:22:21.511Z,46.43
2019-01-11T01:22:55.567Z,56.80
2019-01-11T01:23:55.595Z,56.10
2019-01-11T01:24:49.280Z,42.83
2019-01-11T01:24:55.595Z,58.60
2019-01-11T01:25:55.611Z,57.10
2019-01-11T01:26:55.624Z,55.80
2019-01-11T01:27:17.062Z,47.33
2019-01-11T01:27:55.654Z,53.00
2019-01-11T01:28:55.660Z,48.20
2019-01-11T01:29:44.658Z,43.70
2019-01-11T01:29:55.679Z,50.70
2019-01-11T01:30:55.688Z,48.80
2019-01-11T01:31:55.702Z,54.10
2019-01-11T01:32:12.991Z,42.27
2019-01-11T01:32:55.754Z,49.30
2019-01-11T01:33:55.727Z,50.00
2019-01-11T01:34:40.985Z,47.67
2019-01-11T01:34:55.820Z,50.40
2019-01-11T01:35:55.749Z,54.50
2019-01-11T01:36:55.815Z,52.40
2019-01-11T01:37:11.939Z,44.87
2019-01-11T01:37:55.774Z,45.80
2019-01-11T01:38:55.811Z,51.40
2019-01-11T01:39:39.904Z,46.73
2019-01-11T01:39:55.808Z,50.40
2019-01-11T01:40:55.824Z,51.80
2019-01-11T01:41:55.854Z,46.00
2019-01-11T01:42:07.959Z,40.90
2019-01-11T01:42:55.868Z,48.80
2019-01-11T01:43:55.873Z,50.70
2019-01-11T01:44:35.795Z,44.80
2019-01-11T01:44:55.874Z,49.20
2019-01-11T01:45:55.906Z,48.80
2019-01-11T01:46:55.905Z,53.90
2019-01-11T01:47:03.848Z,46.03
2019-01-11T01:47:55.957Z,50.80
2019-01-11T01:48:55.993Z,51.70
2019-01-11T01:49:31.934Z,45.00
2019-01-11T01:49:55.969Z,48.70
2019-01-11T01:50:55.966Z,49.20
2019-01-11T01:51:55.975Z,50.70
2019-01-11T01:52:00.196Z,46.33
2019-01-11T01:52:55.990Z,50.70
2019-01-11T01:53:56.018Z,54.10
2019-01-11T01:54:28.449Z,49.13
2019-01-11T01:54:56.038Z,48.30
2019-01-11T01:55:56.043Z,50.40
2019-01-11T01:56:56.060Z,49.80
2019-01-11T01:56:56.948Z,43.80
2019-01-11T01:57:56.121Z,50.90
2019-01-11T01:58:56.081Z,46.20
2019-01-11T01:59:24.942Z,44.80
2019-01-11T01:59:56.137Z,47.60
2019-01-11T02:00:56.115Z,49.60
2019-01-11T02:01:52.988Z,47.90
2019-01-11T02:01:56.143Z,51.10
2019-01-11T02:02:56.170Z,50.50
2019-01-11T02:03:56.143Z,51.00
2019-01-11T02:04:21.158Z,41.90
2019-01-11T02:04:56.163Z,52.00
2019-01-11T02:05:56.172Z,47.20
2019-01-11T02:06:49.585Z,40.93
2019-01-11T02:06:56.231Z,49.40
2019-01-11T02:07:56.204Z,47.00
2019-01-11T02:08:56.219Z,47.10
2019-01-11T02:09:19.909Z,42.30
2019-01-11T02:09:56.245Z,50.70
2019-01-11T02:10:56.241Z,48.90
2019-01-11T02:11:49.452Z,41.73
2019-01-11T02:11:56.268Z,54.30
2019-01-11T02:12:56.275Z,54.30
2019-01-11T02:13:56.285Z,50.70
2019-01-11T02:14:17.256Z,43.00
2019-01-11T02:14:56.325Z,51.90
2019-01-11T02:15:56.350Z,49.80
2019-01-11T02:16:45.119Z,51.87
2019-01-11T02:16:56.322Z,50.50
2019-01-11T02:17:56.393Z,52.00
2019-01-11T02:18:56.367Z,58.00
2019-01-11T02:19:13.375Z,45.87
2019-01-11T02:19:56.379Z,52.90
2019-01-11T02:20:56.397Z,54.80
2019-01-11T02:21:41.515Z,48.87
2019-01-11T02:21:56.408Z,50.10
2019-01-11T02:22:56.438Z,58.50
2019-01-11T02:23:56.438Z,55.80
2019-01-11T02:24:09.313Z,36.03
2019-01-11T02:24:56.472Z,46.30
2019-01-11T02:25:56.467Z,35.10
2019-01-11T02:26:38.396Z,33.00
2019-01-11T02:26:56.460Z,33.90
2019-01-11T02:27:56.494Z,34.10
2019-01-11T02:28:56.502Z,35.10
2019-01-11T02:29:06.384Z,31.07
2019-01-11T02:29:56.510Z,32.50
2019-01-11T02:30:56.592Z,31.60
2019-01-11T02:31:34.370Z,28.63
2019-01-11T02:31:56.534Z,35.30
2019-01-11T02:32:56.557Z,34.50
2019-01-11T02:33:56.567Z,39.50
2019-01-11T02:34:01.963Z,29.83
2019-01-11T02:34:56.590Z,41.20
2019-01-11T02:35:56.600Z,40.40
2019-01-11T02:36:29.897Z,33.33
2019-01-11T02:36:56.610Z,43.60
2019-01-11T02:37:56.624Z,41.20
2019-01-11T02:38:56.663Z,42.90
2019-01-11T02:39:00.592Z,34.13
2019-01-11T02:39:56.678Z,44.10
2019-01-11T02:40:56.735Z,39.80
2019-01-11T02:41:28.667Z,31.10
2019-01-11T02:41:56.682Z,40.50
2019-01-11T02:42:56.692Z,43.20
2019-01-11T02:43:56.433Z,39.17
2019-01-11T02:43:56.708Z,44.10
2019-01-11T02:44:56.734Z,45.60
2019-01-11T02:45:56.729Z,41.60
2019-01-11T02:46:25.070Z,34.00
2019-01-11T02:46:56.745Z,46.20
2019-01-11T02:47:56.837Z,43.60
2019-01-11T02:48:53.903Z,34.03
2019-01-11T02:48:56.779Z,39.30
2019-01-11T02:49:56.825Z,39.70
2019-01-11T02:50:56.818Z,38.90
2019-01-11T02:51:21.905Z,30.43
2019-01-11T02:51:56.852Z,42.20
2019-01-11T02:52:56.924Z,36.60
2019-01-11T02:53:50.048Z,33.70
2019-01-11T02:53:56.901Z,36.00
2019-01-11T02:54:56.854Z,40.20
2019-01-11T02:55:56.870Z,47.00
2019-01-11T02:56:18.111Z,39.17
2019-01-11T02:56:56.902Z,42.20
2019-01-11T02:57:56.906Z,47.10
2019-01-11T02:58:46.178Z,38.50
2019-01-11T02:58:56.931Z,44.40
2019-01-11T02:59:56.938Z,48.40
2019-01-11T03:00:56.945Z,45.40
2019-01-11T03:01:13.876Z,37.23
2019-01-11T03:01:56.985Z,45.80
2019-01-11T03:02:56.976Z,43.60
2019-01-11T03:03:41.607Z,33.07
2019-01-11T03:03:56.996Z,47.30
2019-01-11T03:04:56.988Z,45.90
2019-01-11T03:05:57.026Z,47.50
2019-01-11T03:06:09.768Z,39.60
2019-01-11T03:06:57.039Z,41.20
2019-01-11T03:07:57.081Z,46.10
2019-01-11T03:08:37.355Z,34.93
2019-01-11T03:08:57.049Z,40.10
2019-01-11T03:09:57.102Z,41.40
2019-01-11T03:10:57.097Z,43.60
2019-01-11T03:11:05.690Z,34.57
2019-01-11T03:11:57.087Z,42.00
2019-01-11T03:12:57.118Z,39.80
2019-01-11T03:13:33.737Z,31.07
2019-01-11T03:13:57.129Z,38.20
2019-01-11T03:14:57.204Z,35.90
2019-01-11T03:15:57.163Z,38.80
2019-01-11T03:16:01.647Z,29.50
2019-01-11T03:16:57.165Z,39.30
2019-01-11T03:17:57.184Z,41.10
2019-01-11T03:18:29.507Z,35.60
2019-01-11T03:18:57.214Z,38.30
2019-01-11T03:19:57.361Z,37.50
2019-01-11T03:20:57.254Z,38.80
2019-01-11T03:20:57.683Z,34.60
2019-01-11T03:21:57.242Z,42.40
2019-01-11T03:22:57.245Z,35.00
2019-01-11T03:23:25.683Z,30.93
2019-01-11T03:23:57.299Z,35.50
2019-01-11T03:24:57.276Z,38.00
2019-01-11T03:25:53.512Z,27.60
2019-01-11T03:25:57.291Z,34.70
2019-01-11T03:26:57.296Z,34.00
2019-01-11T03:27:57.315Z,31.60
2019-01-11T03:28:21.526Z,29.63
2019-01-11T03:28:57.325Z,33.10
2019-01-11T03:29:57.360Z,34.00
2019-01-11T03:30:49.664Z,32.00
2019-01-11T03:30:57.362Z,31.40
2019-01-11T03:31:57.380Z,36.10
2019-01-11T03:32:57.406Z,35.40
2019-01-11T03:33:17.633Z,27.03
2019-01-11T03:33:57.421Z,29.90
2019-01-11T03:34:57.409Z,30.40
2019-01-11T03:35:46.417Z,25.50
2019-01-11T03:35:57.434Z,26.90
2019-01-11T03:36:57.445Z,28.10
2019-01-11T03:37:57.462Z,30.40
2019-01-11T03:38:14.296Z,27.27
2019-01-11T03:38:57.475Z,30.80
2019-01-11T03:39:58.137Z,29.00
2019-01-11T03:40:42.137Z,23.87
2019-01-11T03:40:57.507Z,29.50
2019-01-11T03:41:57.519Z,26.90
2019-01-11T03:42:57.527Z,28.00
2019-01-11T03:43:10.123Z,26.47
2019-01-11T03:43:57.539Z,28.30
2019-01-11T03:44:57.551Z,27.70
2019-01-11T03:45:38.172Z,28.77
2019-01-11T03:45:57.566Z,26.90
2019-01-11T03:46:57.630Z,27.60
2019-01-11T03:47:57.715Z,32.90
2019-01-11T03:48:06.259Z,28.50
2019-01-11T03:48:57.646Z,34.70
2019-01-11T03:49:57.646Z,37.80
2019-01-11T03:50:33.975Z,31.87
2019-01-11T03:50:57.648Z,39.00
2019-01-11T03:51:57.647Z,38.00
2019-01-11T03:52:57.722Z,36.90
2019-01-11T03:53:02.002Z,34.57
2019-01-11T03:53:57.676Z,42.30
2019-01-11T03:54:57.733Z,41.90
2019-01-11T03:55:29.787Z,35.60
2019-01-11T03:55:57.733Z,38.60
2019-01-11T03:56:57.808Z,48.20
2019-01-11T03:57:57.825Z,51.70
2019-01-11T03:57:57.943Z,36.83
2019-01-11T03:58:57.764Z,54.80
2019-01-11T03:59:57.767Z,53.00
2019-01-11T04:00:25.980Z,34.13
2019-01-11T04:00:57.770Z,51.00
2019-01-11T04:01:57.819Z,38.70
2019-01-11T04:02:54.076Z,32.53
2019-01-11T04:02:57.889Z,40.70
2019-01-11T04:03:57.816Z,37.60
2019-01-11T04:04:57.881Z,32.70
2019-01-11T04:05:22.347Z,30.57
2019-01-11T04:05:57.854Z,35.50
2019-01-11T04:06:57.855Z,35.80
2019-01-11T04:07:50.741Z,34.00
2019-01-11T04:07:57.954Z,36.80
2019-01-11T04:08:57.916Z,38.10
2019-01-11T04:09:57.919Z,37.20
2019-01-11T04:10:22.358Z,30.43
2019-01-11T04:10:57.911Z,37.10
2019-01-11T04:11:57.941Z,38.40
2019-01-11T04:12:50.465Z,32.37
2019-01-11T04:12:57.975Z,39.60
2019-01-11T04:13:57.961Z,37.20
2019-01-11T04:14:58.015Z,35.80
2019-01-11T04:15:18.524Z,33.87
2019-01-11T04:15:57.977Z,41.10
2019-01-11T04:16:58.011Z,41.90
2019-01-11T04:17:51.283Z,35.90
2019-01-11T04:17:58.075Z,39.90
2019-01-11T04:18:58.038Z,40.80
2019-01-11T04:20:01.956Z,36.50
2019-01-11T04:20:18.938Z,33.13
2019-01-11T04:20:58.051Z,37.90
2019-01-11T04:21:58.073Z,36.90
2019-01-11T04:22:50.290Z,31.43
2019-01-11T04:22:58.090Z,37.00
2019-01-11T04:23:58.097Z,38.30
2019-01-11T04:24:58.148Z,38.30
2019-01-11T04:25:26.201Z,30.67
2019-01-11T04:25:58.130Z,39.00
2019-01-11T04:26:58.152Z,39.80
2019-01-11T04:27:53.789Z,32.63
2019-01-11T04:27:58.142Z,37.60
2019-01-11T04:28:58.160Z,35.00
2019-01-11T04:29:58.174Z,35.60
2019-01-11T04:30:22.591Z,30.10
2019-01-11T04:30:58.208Z,37.20
2019-01-11T04:31:58.203Z,32.70
2019-01-11T04:32:50.147Z,34.23
2019-01-11T04:32:58.224Z,33.40
2019-01-11T04:33:58.240Z,34.30
2019-01-11T04:34:58.247Z,35.60
2019-01-11T04:35:18.301Z,27.33
2019-01-11T04:35:58.265Z,30.00
2019-01-11T04:36:58.326Z,30.00
2019-01-11T04:37:46.706Z,27.67
2019-01-11T04:37:58.325Z,29.30
2019-01-11T04:38:58.310Z,30.00
2019-01-11T04:39:58.319Z,28.80
2019-01-11T04:40:15.702Z,28.17
2019-01-11T04:40:58.351Z,32.20
2019-01-11T04:41:58.375Z,27.90
2019-01-11T04:42:43.877Z,41.73
2019-01-11T04:42:58.394Z,29.60
2019-01-11T04:43:58.379Z,47.80
2019-01-11T04:44:58.399Z,53.30
2019-01-11T04:45:11.579Z,25.83
2019-01-11T04:45:58.401Z,35.60
2019-01-11T04:46:58.432Z,29.40
2019-01-11T04:47:39.500Z,23.93
2019-01-11T04:47:58.442Z,25.20
2019-01-11T04:48:58.458Z,25.20
2019-01-11T04:49:58.455Z,24.40
2019-01-11T04:50:09.583Z,22.87
2019-01-11T04:50:58.473Z,26.80
2019-01-11T04:51:58.482Z,26.80
2019-01-11T04:52:37.690Z,23.10
2019-01-11T04:52:58.559Z,26.90
2019-01-11T04:53:58.514Z,24.20
2019-01-11T04:54:58.528Z,25.90
2019-01-11T04:55:06.795Z,22.07
2019-01-11T04:55:58.540Z,24.70
2019-01-11T04:56:58.685Z,28.00
2019-01-11T04:57:34.949Z,23.30
2019-01-11T04:57:58.582Z,30.00
2019-01-11T04:58:58.582Z,26.70
2019-01-11T04:59:58.615Z,27.20
2019-01-11T05:00:03.687Z,26.20
2019-01-11T05:00:58.615Z,25.30
2019-01-11T05:01:58.635Z,26.80
2019-01-11T05:02:32.061Z,21.70
2019-01-11T05:02:58.640Z,26.00
2019-01-11T05:03:58.705Z,24.30
2019-01-11T05:04:58.788Z,23.30
2019-01-11T05:04:59.968Z,23.07
2019-01-11T05:05:58.695Z,24.40
2019-01-11T05:06:58.697Z,22.40
2019-01-11T05:07:28.123Z,23.87
2019-01-11T05:07:58.744Z,23.70
2019-01-11T05:08:58.722Z,21.20
2019-01-11T05:09:55.944Z,25.17
2019-01-11T05:09:58.779Z,21.30
2019-01-11T05:10:58.774Z,20.50
2019-01-11T05:11:58.771Z,23.00
2019-01-11T05:12:23.978Z,21.67
2019-01-11T05:12:58.799Z,20.50
2019-01-11T05:13:58.794Z,20.60
2019-01-11T05:14:51.964Z,20.77
2019-01-11T05:14:58.817Z,23.70
2019-01-11T05:15:58.845Z,20.40
2019-01-11T05:16:58.864Z,20.90
2019-01-11T05:17:19.879Z,22.53
2019-01-11T05:17:58.866Z,20.90
2019-01-11T05:18:58.872Z,20.60
2019-01-11T05:19:47.469Z,19.17
2019-01-11T05:19:58.901Z,18.80
2019-01-11T05:20:58.901Z,18.10
2019-01-11T05:21:58.940Z,18.50
2019-01-11T05:22:15.744Z,19.07
2019-01-11T05:22:58.927Z,16.70
2019-01-11T05:23:58.964Z,18.20
2019-01-11T05:24:43.686Z,16.93
2019-01-11T05:24:58.985Z,17.90
2019-01-11T05:25:58.984Z,15.90
2019-01-11T05:26:59.031Z,16.20
2019-01-11T05:27:12.566Z,16.83
2019-01-11T05:27:59.039Z,16.80
2019-01-11T05:28:59.051Z,17.10
2019-01-11T05:29:41.321Z,15.57
2019-01-11T05:29:59.056Z,18.60
2019-01-11T05:30:59.046Z,16.90
2019-01-11T05:31:59.059Z,18.00
2019-01-11T05:32:09.595Z,19.70
2019-01-11T05:32:59.072Z,19.20
2019-01-11T05:33:59.086Z,16.80
2019-01-11T05:34:37.558Z,17.00
2019-01-11T05:34:59.129Z,16.20
2019-01-11T05:35:59.125Z,17.90
2019-01-11T05:36:59.123Z,14.40
2019-01-11T05:37:05.907Z,17.20
2019-01-11T05:37:59.175Z,16.50
2019-01-11T05:38:59.175Z,15.40
2019-01-11T05:39:34.081Z,14.67
2019-01-11T05:39:59.188Z,17.00
2019-01-11T05:40:59.185Z,15.30
2019-01-11T05:41:59.209Z,15.50
2019-01-11T05:42:01.999Z,15.57
2019-01-11T05:42:59.211Z,14.10
2019-01-11T05:43:59.232Z,15.40
2019-01-11T05:44:30.218Z,15.93
2019-01-11T05:44:59.250Z,16.30
2019-01-11T05:45:59.328Z,14.80
2019-01-11T05:46:59.281Z,15.50
2019-01-11T05:47:00.672Z,14.20
2019-01-11T05:47:59.317Z,17.40
2019-01-11T05:48:59.311Z,17.10
2019-01-11T05:49:28.532Z,16.07
2019-01-11T05:49:59.327Z,15.80
2019-01-11T05:50:59.349Z,17.30
2019-01-11T05:51:55.983Z,16.23
2019-01-11T05:51:59.345Z,17.80
2019-01-11T05:52:59.364Z,18.00
2019-01-11T05:53:59.430Z,17.80
2019-01-11T05:54:24.646Z,16.23
2019-01-11T05:54:59.387Z,16.80
2019-01-11T05:55:59.402Z,17.40
2019-01-11T05:56:52.204Z,14.93
2019-01-11T05:56:59.414Z,18.80
2019-01-11T05:57:59.436Z,18.20
2019-01-11T05:58:59.442Z,16.90
2019-01-11T05:59:20.312Z,14.53
2019-01-11T05:59:59.522Z,14.80
2019-01-11T06:00:59.476Z,16.10
2019-01-11T06:01:48.669Z,15.30
2019-01-11T06:01:59.500Z,16.40
2019-01-11T06:02:59.509Z,15.80
2019-01-11T06:03:59.515Z,15.60
2019-01-11T06:04:36.388Z,14.03
2019-01-11T06:04:59.583Z,17.00
2019-01-11T06:05:59.561Z,17.30
2019-01-11T06:06:59.558Z,18.00
2019-01-11T06:07:20.759Z,14.87
2019-01-11T06:07:59.624Z,15.50
2019-01-11T06:08:59.654Z,18.20
2019-01-11T06:09:49.279Z,13.47
2019-01-11T06:09:59.682Z,13.60
2019-01-11T06:10:59.634Z,13.30
2019-01-11T06:11:59.648Z,14.80
2019-01-11T06:12:17.254Z,15.97
2019-01-11T06:12:59.725Z,13.70
2019-01-11T06:13:59.662Z,13.70
2019-01-11T06:14:45.910Z,15.93
2019-01-11T06:14:59.772Z,15.10
2019-01-11T06:15:59.698Z,15.80
2019-01-11T06:16:59.706Z,16.50
2019-01-11T06:17:13.731Z,14.53
2019-01-11T06:17:59.791Z,16.00
2019-01-11T06:18:59.732Z,14.60
2019-01-11T06:19:41.636Z,14.93
2019-01-11T06:19:59.836Z,15.00
2019-01-11T06:20:59.807Z,16.70
2019-01-11T06:21:59.790Z,16.60
2019-01-11T06:22:09.675Z,13.83
2019-01-11T06:22:59.788Z,15.60
2019-01-11T06:23:59.804Z,15.70
2019-01-11T06:24:37.659Z,13.00
2019-01-11T06:24:59.817Z,15.20
2019-01-11T06:25:59.964Z,15.50
2019-01-11T06:26:59.885Z,14.30
2019-01-11T06:27:05.954Z,12.63
2019-01-11T06:27:59.860Z,14.50
2019-01-11T06:28:59.881Z,15.70
2019-01-11T06:29:33.551Z,14.00
2019-01-11T06:29:59.890Z,16.10
2019-01-11T06:30:59.908Z,14.60
2019-01-11T06:31:59.959Z,16.70
2019-01-11T06:32:01.544Z,12.80
2019-01-11T06:32:59.991Z,14.40
2019-01-11T06:33:59.958Z,14.40
2019-01-11T06:34:29.404Z,13.50
2019-01-11T06:34:59.982Z,14.80
2019-01-11T06:35:59.998Z,14.00
2019-01-11T06:36:57.575Z,13.37
2019-01-11T06:36:59.994Z,13.90
2019-01-11T06:38:00.034Z,14.20
2019-01-11T06:39:00.031Z,12.50
2019-01-11T06:39:25.240Z,13.83
2019-01-11T06:40:00.224Z,14.30
2019-01-11T06:41:00.046Z,14.70
2019-01-11T06:41:55.865Z,12.77
2019-01-11T06:42:00.065Z,17.80
2019-01-11T06:43:03.470Z,11.70
2019-01-11T06:44:00.091Z,12.60
2019-01-11T06:44:23.626Z,10.93
2019-01-11T06:45:00.221Z,10.90
2019-01-11T06:46:00.153Z,10.90
2019-01-11T06:46:51.317Z,11.57
2019-01-11T06:47:00.158Z,10.90
2019-01-11T06:48:00.174Z,10.20
2019-01-11T06:49:00.175Z,9.60
2019-01-11T06:49:20.131Z,9.73
2019-01-11T06:50:00.249Z,10.20
2019-01-11T06:51:00.191Z,8.80
2019-01-11T06:51:48.253Z,8.90
2019-01-11T06:52:00.244Z,8.30
2019-01-11T06:53:00.221Z,8.90
2019-01-11T06:54:00.234Z,9.20
2019-01-11T06:54:16.272Z,8.93
2019-01-11T06:55:00.253Z,9.10
2019-01-11T06:56:00.298Z,9.10
2019-01-11T06:56:45.078Z,8.50
2019-01-11T06:57:00.383Z,10.60
2019-01-11T06:58:00.307Z,10.30
2019-01-11T06:59:00.340Z,10.40
2019-01-11T06:59:13.182Z,10.63
2019-01-11T07:00:00.365Z,9.10
2019-01-11T07:01:00.353Z,8.90
2019-01-11T07:01:40.896Z,9.83
2019-01-11T07:02:00.351Z,9.70
2019-01-11T07:03:00.360Z,11.40
2019-01-11T07:04:00.383Z,10.00
2019-01-11T07:04:09.159Z,9.57
2019-01-11T07:05:00.396Z,9.80
2019-01-11T07:06:00.433Z,8.80
2019-01-11T07:06:38.182Z,12.00
2019-01-11T07:07:00.435Z,9.10
2019-01-11T07:08:00.465Z,11.50
2019-01-11T07:09:00.457Z,13.60
2019-01-11T07:09:07.315Z,13.17
2019-01-11T07:10:00.464Z,13.20
2019-01-11T07:11:00.533Z,12.30
2019-01-11T07:11:35.515Z,10.83
2019-01-11T07:12:00.509Z,11.00
2019-01-11T07:13:00.518Z,10.80
2019-01-11T07:14:00.526Z,11.40
2019-01-11T07:14:03.374Z,10.67
2019-01-11T07:15:00.546Z,11.20
2019-01-11T07:16:00.560Z,10.30
2019-01-11T07:16:31.617Z,11.47
2019-01-11T07:17:00.632Z,14.20
2019-01-11T07:18:00.612Z,11.00
2019-01-11T07:18:59.136Z,11.63
2019-01-11T07:19:00.594Z,11.50
2019-01-11T07:20:05.521Z,10.80
2019-01-11T07:21:00.625Z,13.00
2019-01-11T07:21:27.751Z,12.53
2019-01-11T07:22:00.646Z,11.90
2019-01-11T07:23:00.669Z,12.40
2019-01-11T07:23:56.689Z,9.83
2019-01-11T07:24:01.081Z,10.10
2019-01-11T07:25:00.682Z,10.40
2019-01-11T07:26:00.718Z,12.20
2019-01-11T07:26:24.698Z,10.63
2019-01-11T07:27:00.753Z,11.20
2019-01-11T07:28:00.780Z,10.50
2019-01-11T07:28:53.268Z,10.33
2019-01-11T07:29:00.740Z,12.30
2019-01-11T07:30:00.778Z,10.40
2019-01-11T07:31:00.818Z,11.60
2019-01-11T07:31:24.500Z,11.23
2019-01-11T07:32:00.782Z,15.00
2019-01-11T07:33:00.823Z,12.20
2019-01-11T07:34:00.828Z,11.40
2019-01-11T07:34:11.526Z,10.63
2019-01-11T07:35:00.839Z,12.90
2019-01-11T07:36:00.970Z,12.00
2019-01-11T07:36:59.075Z,13.00
2019-01-11T07:37:00.886Z,11.90
2019-01-11T07:38:00.880Z,11.90
2019-01-11T07:39:00.918Z,12.40
2019-01-11T07:39:28.797Z,12.37
2019-01-11T07:40:00.955Z,13.80
2019-01-11T07:41:00.924Z,14.90
2019-01-11T07:42:00.930Z,13.60
2019-01-11T07:42:01.877Z,11.27
2019-01-11T07:43:01.018Z,12.20
2019-01-11T07:44:00.980Z,16.40
2019-01-11T07:44:29.837Z,14.87
2019-01-11T07:45:01.026Z,13.00
2019-01-11T07:46:01.007Z,17.60
2019-01-11T07:46:58.554Z,14.10
2019-01-11T07:47:01.015Z,14.20
2019-01-11T07:48:01.035Z,16.20
2019-01-11T07:49:01.104Z,14.30
2019-01-11T07:49:26.709Z,13.23
2019-01-11T07:50:01.105Z,12.70
2019-01-11T07:51:01.061Z,17.50
2019-01-11T07:51:54.417Z,13.53
2019-01-11T07:52:01.072Z,13.90
2019-01-11T07:53:01.112Z,14.70
2019-01-11T07:54:01.110Z,13.30
2019-01-11T07:54:22.848Z,13.10
2019-01-11T07:55:01.142Z,12.90
2019-01-11T07:56:01.151Z,12.70
2019-01-11T07:56:52.730Z,12.97
2019-01-11T07:57:01.197Z,15.30
2019-01-11T07:58:01.162Z,15.40
2019-01-11T07:59:01.420Z,14.00
2019-01-11T07:59:21.175Z,12.63
2019-01-11T08:00:01.227Z,11.90
2019-01-11T08:01:01.205Z,14.00
2019-01-11T08:01:49.503Z,15.63
2019-01-11T08:02:01.227Z,12.50
2019-01-11T08:03:01.261Z,14.80
2019-01-11T08:04:01.251Z,14.10
2019-01-11T08:04:17.495Z,12.80
2019-01-11T08:05:01.278Z,16.10
2019-01-11T08:06:01.310Z,15.20
2019-01-11T08:06:46.425Z,14.43
2019-01-11T08:07:01.303Z,15.20
2019-01-11T08:08:01.335Z,13.60
2019-01-11T08:09:01.342Z,16.00
2019-01-11T08:09:14.337Z,13.67
2019-01-11T08:10:01.347Z,15.70
2019-01-11T08:11:01.367Z,14.40
2019-01-11T08:11:42.304Z,14.77
2019-01-11T08:12:01.419Z,15.20
2019-01-11T08:13:01.383Z,16.70
2019-01-11T08:14:01.402Z,18.20
2019-01-11T08:14:09.991Z,12.50
2019-01-11T08:15:01.438Z,14.10
2019-01-11T08:16:01.430Z,17.20
2019-01-11T08:16:37.570Z,12.33
2019-01-11T08:17:01.448Z,14.80
2019-01-11T08:18:01.485Z,16.40
2019-01-11T08:19:01.488Z,16.20
2019-01-11T08:19:05.790Z,14.47
2019-01-11T08:20:01.491Z,19.60
2019-01-11T08:21:01.517Z,15.60
2019-01-11T08:21:33.288Z,14.17
2019-01-11T08:22:01.519Z,14.50
2019-01-11T08:23:01.541Z,14.70
2019-01-11T08:24:01.219Z,13.50
2019-01-11T08:24:01.563Z,16.00
2019-01-11T08:25:01.559Z,15.50
2019-01-11T08:26:01.598Z,14.70
2019-01-11T08:26:29.020Z,16.53
2019-01-11T08:27:01.590Z,16.00
2019-01-11T08:28:01.604Z,16.20
2019-01-11T08:28:56.856Z,14.50
2019-01-11T08:29:01.622Z,17.90
2019-01-11T08:30:01.630Z,18.70
2019-01-11T08:31:01.698Z,15.60
2019-01-11T08:31:24.509Z,14.83
2019-01-11T08:32:01.662Z,17.30
2019-01-11T08:33:01.693Z,20.60
2019-01-11T08:33:52.134Z,17.20
2019-01-11T08:34:01.691Z,22.00
2019-01-11T08:35:01.761Z,23.00
2019-01-11T08:36:01.761Z,20.30
2019-01-11T08:36:19.831Z,19.80
2019-01-11T08:37:01.734Z,25.40
2019-01-11T08:38:01.746Z,21.90
2019-01-11T08:38:47.766Z,16.17
2019-01-11T08:39:01.773Z,21.60
2019-01-11T08:40:01.777Z,17.20
2019-01-11T08:41:01.796Z,14.50
2019-01-11T08:41:15.582Z,12.77
2019-01-11T08:42:01.815Z,15.80
2019-01-11T08:43:01.834Z,17.80
2019-01-11T08:43:43.347Z,14.07
2019-01-11T08:44:01.840Z,16.70
2019-01-11T08:45:01.870Z,15.60
2019-01-11T08:46:01.862Z,18.40
2019-01-11T08:46:11.739Z,16.07
2019-01-11T08:47:01.878Z,15.10
2019-01-11T08:48:01.903Z,15.90
2019-01-11T08:48:39.556Z,15.40
2019-01-11T08:49:01.921Z,17.30
2019-01-11T08:50:01.980Z,17.80
2019-01-11T08:51:02.747Z,15.10
2019-01-11T08:51:07.435Z,15.20
2019-01-11T08:52:01.953Z,17.50
2019-01-11T08:53:01.965Z,17.60
2019-01-11T08:53:35.337Z,16.80
2019-01-11T08:54:02.009Z,20.40
2019-01-11T08:55:01.994Z,57.80
2019-01-11T08:56:08.090Z,25.60
2019-01-11T08:56:08.251Z,24.90
2019-01-11T08:57:02.028Z,24.50
2019-01-11T08:58:02.070Z,18.50
2019-01-11T08:58:33.583Z,16.47
2019-01-11T08:59:02.054Z,18.80
2019-01-11T09:00:02.070Z,15.80
2019-01-11T09:01:01.246Z,15.20
2019-01-11T09:01:02.081Z,21.10
2019-01-11T09:02:02.092Z,23.00
2019-01-11T09:03:02.106Z,20.20
2019-01-11T09:03:29.378Z,12.83
2019-01-11T09:04:02.141Z,18.30
2019-01-11T09:05:02.138Z,14.30
2019-01-11T09:05:57.585Z,14.37
2019-01-11T09:06:02.160Z,18.40
2019-01-11T09:07:02.214Z,15.20
2019-01-11T09:08:02.181Z,16.10
2019-01-11T09:08:25.302Z,16.17
2019-01-11T09:09:02.194Z,15.90
2019-01-11T09:10:02.218Z,14.10
2019-01-11T09:10:53.421Z,14.83
2019-01-11T09:11:02.247Z,16.80